createdAt,value
2017-08-10T00:06:07.000Z,71.6
2017-08-10T00:22:51.000Z,71.6
2017-08-10T00:39:34.000Z,71.6
2017-08-10T00:56:18.000Z,71.6
2017-08-10T01:13:01.000Z,71.6
2017-08-10T01:29:44.000Z,71.6
2017-08-10T02:03:11.000Z,72.8
2017-08-10T02:19:53.000Z,73.2
2017-08-10T02:36:36.000Z,73.2
2017-08-10T02:53:18.000Z,73.2
2017-08-10T03:10:00.000Z,73.2
2017-08-10T03:26:43.000Z,73.6
2017-08-10T03:43:25.000Z,73.6
2017-08-10T04:00:08.000Z,74
2017-08-10T04:16:50.000Z,73.6
2017-08-10T04:33:32.000Z,73.6
2017-08-10T04:50:16.000Z,73.6
2017-08-10T05:06:58.000Z,73.6
2017-08-10T05:23:41.000Z,73.6
2017-08-10T05:40:24.000Z,73.6
2017-08-10T05:57:08.000Z,73.2
2017-08-10T06:13:52.000Z,73.2
2017-08-10T06:30:36.000Z,72.4
2017-08-10T06:47:20.000Z,72.8
2017-08-10T07:04:05.000Z,72.8
2017-08-10T07:20:49.000Z,73.2
2017-08-10T07:37:33.000Z,73.2
2017-08-10T07:54:17.000Z,73.2
2017-08-10T08:11:02.000Z,73.6
2017-08-10T08:27:46.000Z,73.6
2017-08-10T08:31:07.000Z,73.6
2017-08-10T08:47:53.000Z,72.4
2017-08-10T09:04:39.000Z,71.6
2017-08-10T09:18:04.000Z,69.6
2017-08-10T09:24:47.000Z,68.8
2017-08-10T09:28:09.000Z,65.6
2017-08-10T09:41:35.000Z,65.6
2017-08-10T09:51:39.000Z,64.4
2017-08-10T10:01:45.000Z,62.4
2017-08-10T10:15:12.000Z,59.2
2017-08-10T10:21:54.000Z,61.6
2017-08-10T10:28:39.000Z,59.2
2017-08-10T10:35:21.000Z,60
2017-08-10T10:52:10.000Z,59.2
2017-08-10T11:09:01.000Z,58.4
2017-08-10T11:19:06.000Z,57.6
2017-08-10T11:35:55.000Z,57.2
2017-08-10T11:42:39.000Z,56.4
2017-08-10T11:59:29.000Z,55.6
2017-08-10T12:12:57.000Z,53.6
2017-08-10T12:29:47.000Z,52
2017-08-10T12:33:10.000Z,54
2017-08-10T12:49:59.000Z,54
2017-08-10T13:06:50.000Z,54
2017-08-10T13:23:40.000Z,53.6
2017-08-10T13:27:01.000Z,50.8
2017-08-10T13:43:52.000Z,51.6
2017-08-10T14:00:41.000Z,52.8
2017-08-10T14:17:30.000Z,52.8
2017-08-10T14:30:57.000Z,53.2
2017-08-10T14:47:47.000Z,53.2
2017-08-10T15:04:35.000Z,53.6
2017-08-10T15:21:24.000Z,53.2
2017-08-10T15:38:11.000Z,54
2017-08-10T15:55:00.000Z,55.6
2017-08-10T16:01:43.000Z,58
2017-08-10T16:18:30.000Z,60
2017-08-10T16:35:18.000Z,61.2
2017-08-10T16:52:05.000Z,63.2
2017-08-10T17:05:31.000Z,65.2
2017-08-10T17:22:17.000Z,66.4
2017-08-10T17:39:03.000Z,66.8
2017-08-10T17:55:50.000Z,68
2017-08-10T18:12:36.000Z,69.6
2017-08-10T18:29:21.000Z,70.4
2017-08-10T18:46:07.000Z,72
2017-08-10T19:02:52.000Z,73.6
2017-08-10T19:09:34.000Z,76.8
2017-08-10T19:22:59.000Z,78.4
2017-08-10T19:33:01.000Z,82.4
2017-08-10T19:36:22.000Z,80.4
2017-08-10T19:53:06.000Z,80.4
2017-08-10T20:09:50.000Z,80.4
2017-08-10T20:26:34.000Z,80
2017-08-10T20:43:18.000Z,80
2017-08-10T21:00:02.000Z,80.8
2017-08-10T21:16:46.000Z,81.2
2017-08-10T21:33:30.000Z,81.2
2017-08-10T21:50:14.000Z,82
2017-08-10T22:06:57.000Z,82
2017-08-10T22:23:41.000Z,82.4
2017-08-10T22:40:24.000Z,82.8
2017-08-10T22:57:08.000Z,82.4
2017-08-10T23:13:51.000Z,82.4
2017-08-10T23:30:35.000Z,82
2017-08-10T23:47:18.000Z,82.4
